Latest Weather Observations for Inverell RS

IDN60801

Issued at 9:32 pm EDT Saturday 10 December 2016 (issued every 30 minutes, with the page automatically refreshed every 10 minutes)

About weather observations | Map of weather stations | Latest weather observations for NSW | Other Formats
Station Details ID: 056018 Name: INVERELL RESEARCH CENTRE Lat: -29.78 Lon: 151.08 Height: 664.0 m
Data from the previous 72 hours. | See also: Recent months at Inverell RS
Date/Time
EDT
Temp
°C
App
Temp
°C
Dew
Point
°C
Rel
Hum
%
Delta-T
°C
Wind Press
QNH
hPa
Press
MSL
hPa
Rain since
9am
mm
Dir  Spd
km/h
Gust
km/h
Spd
kts
Gust
kts
10/09:30pm 20.5 18.7 10.9 54 5.4 ENE 11 17 6 9 1021.1 - 0.0
10/09:00pm 20.5 18.3 8.0 44 6.7 N 9 11 5 6 1020.4 1017.2 0.0
10/08:30pm 20.6 18.7 7.4 42 7.0 NW 7 9 4 5 1020.0 - 0.0
10/08:00pm 20.8 19.0 7.9 43 6.9 WNW 7 9 4 5 1019.7 - 0.0
10/07:30pm 21.7 20.1 8.9 44 7.0 WNW 7 9 4 5 1019.5 - 0.0
10/07:00pm 24.6 23.3 9.2 37 8.6 NNW 6 9 3 5 1019.2 - 0.0
10/06:30pm 25.8 24.7 6.9 30 10.2 N 2 9 1 5 1018.7 - 0.0
10/06:00pm 24.6 23.7 7.7 34 9.2 ESE 2 2 1 1 1018.6 1015.4 0.0
10/05:30pm 25.6 24.2 8.7 34 9.4 W 6 7 3 4 1018.6 - 0.0
10/05:00pm 25.8 23.5 5.8 27 10.6 NW 7 13 4 7 1018.7 - 0.0
10/04:30pm 26.2 23.3 6.5 28 10.6 N 11 22 6 12 1019.0 - 0.0
10/04:00pm 26.3 23.4 6.4 28 10.7 E 11 19 6 10 1019.2 - 0.0
10/03:30pm 25.9 23.6 7.4 30 10.1 NNW 9 19 5 10 1019.7 - 0.0
10/03:00pm 26.2 24.3 8.9 33 9.7 NNE 9 19 5 10 1019.9 1016.8 0.0
10/02:30pm 25.6 23.1 6.6 29 10.2 N 9 13 5 7 1020.3 - 0.0
10/02:00pm 25.6 22.9 7.4 31 9.9 N 11 19 6 10 1020.8 - 0.0
10/01:30pm 24.8 22.0 6.9 31 9.6 NNE 11 20 6 11 1021.0 - 0.0
10/01:00pm 24.5 22.0 8.0 35 9.0 NNW 11 15 6 8 1021.3 - 0.0
10/12:30pm 24.2 21.3 8.1 35 8.8 NNE 13 19 7 10 1021.7 - 0.0
10/12:00pm 23.5 21.3 9.5 41 7.8 ENE 11 26 6 14 1021.9 1018.7 0.0
10/11:30am 23.1 21.2 9.0 40 7.8 NNE 9 15 5 8 1022.2 - 0.0
10/11:00am 22.3 19.7 9.3 43 7.2 ENE 13 22 7 12 1022.3 - 0.0
10/10:30am 22.0 19.1 9.8 45 6.8 E 15 28 8 15 1022.5 - 0.0
10/10:00am 20.8 18.2 9.3 47 6.3 NE 13 24 7 13 1022.5 - 0.0
10/09:30am 20.4 17.1 9.5 49 6.0 NE 17 24 9 13 1022.6 - 0.0
10/09:00am 19.8 15.6 9.8 52 5.5 E 22 32 12 17 1022.4 1019.2 0.0
10/08:30am 18.5 14.5 9.0 54 5.1 ENE 20 33 11 18 1022.3 - 0.0
10/08:00am 17.4 14.4 10.5 64 3.8 ENE 17 28 9 15 1021.9 - 0.0
10/07:30am 16.2 14.4 10.9 71 2.9 E 11 17 6 9 1021.6 - 0.0
10/07:00am 15.0 13.5 10.6 75 2.4 E 9 11 5 6 1021.0 - 0.0
10/06:30am 13.4 12.3 9.8 79 1.9 ESE 6 13 3 7 1020.6 - 0.0
10/06:00am 12.9 11.5 9.5 80 1.8 SE 7 13 4 7 1020.1 1016.8 0.0
10/05:30am 12.6 10.5 9.6 82 1.6 ESE 11 17 6 9 1019.7 - 0.0
10/05:00am 12.2 10.7 9.3 82 1.5 SE 7 13 4 7 1019.4 - 0.0
10/04:30am 12.1 10.2 9.2 82 1.5 SE 9 13 5 7 1019.2 - 0.0
10/04:00am 11.9 9.6 7.5 74 2.2 SE 9 13 5 7 1018.8 - 0.0
10/03:30am 12.2 10.2 7.2 71 2.5 SSE 7 13 4 7 1018.5 - 0.0
10/03:00am 12.4 9.6 5.1 61 3.5 SSE 9 11 5 6 1018.2 1015.0 0.0
10/02:30am 12.9 9.2 2.6 49 4.7 SSE 11 15 6 8 1018.0 - 0.0
10/02:00am 10.1 8.1 4.5 68 2.6 SE 4 15 2 8 1018.0 - 0.0
10/01:30am 12.8 10.2 3.3 52 4.4 NE 6 13 3 7 1017.7 - 0.0
10/01:00am 12.9 10.1 3.4 52 4.4 S 7 9 4 5 1018.0 - 0.0
10/12:30am 13.7 11.0 2.9 48 5.0 S 6 7 3 4 1018.1 - 0.0
10/12:00am 13.6 11.4 3.3 49 4.8 ESE 4 7 2 4 1018.2 1015.1 0.0
 
Date/Time
EDT
Temp
°C
App
Temp
°C
Dew
Point
°C
Rel
Hum
%
Delta-T
°C
Wind Press
QNH
hPa
Press
MSL
hPa
Rain since
9am
mm
Dir  Spd
km/h
Gust
km/h
Spd
kts
Gust
kts
09/11:30pm 14.7 11.9 3.4 46 5.3 S 7 11 4 6 1018.2 - 0.0
09/11:00pm 16.5 12.5 0.8 34 7.1 S 11 17 6 9 1018.0 - 0.0
09/10:30pm 14.9 11.9 2.3 42 5.8 SSW 7 11 4 6 1017.9 - 0.0
09/10:00pm 16.5 12.6 1.1 35 7.0 WSW 11 15 6 8 1017.6 - 0.0
09/09:30pm 17.0 13.5 1.3 34 7.2 WSW 9 13 5 7 1017.2 - 0.0
09/09:00pm 17.8 14.6 0.7 31 7.8 WSW 7 11 4 6 1017.0 1013.8 0.0
09/08:30pm 18.2 15.1 1.4 32 7.8 WSW 7 11 4 6 1016.7 - 0.0
09/08:00pm 19.5 16.0 1.0 29 8.6 WSW 9 13 5 7 1016.2 - 0.0
09/07:30pm 20.6 17.1 1.0 27 9.2 SSW 9 15 5 8 1015.6 - 0.0
09/07:00pm 21.6 18.3 0.4 24 9.9 S 7 13 4 7 1015.1 - 0.0
09/06:30pm 23.0 19.7 0.0 21 10.8 SSW 7 13 4 7 1014.6 - 0.0
09/06:00pm 23.1 19.2 0.9 23 10.6 S 11 22 6 12 1014.1 1010.8 0.0
09/05:30pm 23.5 19.8 2.4 25 10.4 S 11 17 6 9 1013.7 - 0.0
09/05:00pm 23.2 18.6 1.5 24 10.5 S 15 28 8 15 1013.7 - 0.0
09/04:30pm 23.2 19.1 2.1 25 10.3 S 13 20 7 11 1013.7 - 0.0
09/04:00pm 23.1 18.9 1.6 24 10.4 S 13 30 7 16 1013.8 - 0.0
09/03:30pm 23.0 18.0 1.4 24 10.4 S 17 33 9 18 1013.8 - 0.0
09/03:00pm 22.9 18.4 2.3 26 10.1 SSW 15 32 8 17 1014.2 1010.8 0.0
09/02:30pm 23.3 19.5 3.9 28 9.8 S 13 22 7 12 1014.2 - 0.0
09/02:00pm 22.8 18.8 4.9 31 9.2 SSW 15 24 8 13 1014.2 - 0.0
09/01:30pm 22.1 18.7 4.0 30 9.1 SW 11 22 6 12 1014.3 - 0.0
09/01:00pm 21.5 17.8 2.6 28 9.2 WNW 11 22 6 12 1014.3 - 0.0
09/12:30pm 21.3 18.0 4.4 33 8.5 SW 11 19 6 10 1014.4 - 0.0
09/12:00pm 19.9 15.8 4.2 35 7.8 SSW 15 19 8 10 1014.3 1011.1 0.0
09/11:30am 19.5 15.7 5.8 40 7.0 S 15 24 8 13 1014.3 - 0.0
09/11:00am 18.6 14.3 5.3 41 6.7 S 17 32 9 17 1014.2 - 0.0
09/10:30am 18.0 14.3 4.4 40 6.7 SSW 13 22 7 12 1014.3 - 0.0
09/10:00am 17.8 14.2 6.7 48 5.7 S 15 24 8 13 1014.1 - 0.0
09/09:30am 17.6 14.9 7.2 50 5.4 S 11 19 6 10 1013.6 - 0.0
09/09:00am 16.9 14.0 8.2 56 4.6 S 13 17 7 9 1013.4 1010.1 35.8
09/08:30am 17.1 13.7 7.7 54 4.9 S 15 26 8 14 1013.1 - 35.8
09/08:00am 15.8 13.0 8.4 61 3.9 S 13 20 7 11 1012.7 - 35.8
09/07:30am 15.7 14.0 10.0 69 3.1 S 9 15 5 8 1012.3 - 35.8
09/07:00am 15.5 14.1 11.0 74 2.5 S 9 19 5 10 1011.5 - 35.8
09/06:30am 18.0 18.5 16.5 91 0.9 W 9 13 5 7 1010.9 - 35.8
09/06:00am 18.1 18.8 17.1 94 0.6 WNW 9 17 5 9 1010.3 1007.0 35.8
09/05:30am 18.1 18.1 17.1 94 0.6 NW 13 20 7 11 1009.9 - 35.0
09/05:00am 18.3 18.1 16.7 90 1.0 NW 13 20 7 11 1009.7 - 35.0
09/04:30am 18.3 18.2 16.9 91 0.9 WNW 13 24 7 13 1009.5 - 35.0
09/04:00am 18.3 18.2 16.9 91 0.9 NW 13 22 7 12 1009.7 - 35.0
09/03:30am 18.2 18.5 16.9 92 0.8 NW 11 17 6 9 1009.6 - 35.0
09/03:00am 18.1 17.6 17.0 93 0.7 WNW 15 26 8 14 1009.6 1006.3 35.0
09/02:30am 17.8 18.9 17.0 95 0.5 NW 7 9 4 5 1009.5 - 35.0
09/02:00am 17.8 18.1 17.0 95 0.5 NNW 11 17 6 9 1009.9 - 35.0
09/01:30am 18.0 18.6 16.9 93 0.7 WNW 9 17 5 9 1010.3 - 33.6
09/01:00am 18.4 20.0 17.0 91 0.9 WNW 4 11 2 6 1010.5 - 30.6
09/12:30am 18.9 19.8 16.6 86 1.4 NW 7 13 4 7 1010.6 - 30.4
09/12:00am 18.9 19.2 17.1 89 1.1 WNW 11 28 6 15 1010.3 1006.9 30.4
 
Date/Time
EDT
Temp
°C
App
Temp
°C
Dew
Point
°C
Rel
Hum
%
Delta-T
°C
Wind Press
QNH
hPa
Press
MSL
hPa
Rain since
9am
mm
Dir  Spd
km/h
Gust
km/h
Spd
kts
Gust
kts
08/11:30pm 20.5 20.3 17.7 84 1.8 W 15 26 8 14 1010.3 - 30.0
08/11:00pm 19.9 20.3 19.0 95 0.6 NNW 15 20 8 11 1009.5 - 30.0
08/10:30pm 19.9 20.7 19.0 95 0.6 NNW 13 15 7 8 1009.7 - 30.0
08/10:00pm 19.6 20.8 19.1 97 0.3 N 11 15 6 8 1009.5 - 30.0
08/09:30pm 19.5 21.0 19.0 97 0.3 N 9 11 5 6 1009.6 - 30.0
08/09:00pm 19.7 21.0 19.2 97 0.3 N 11 15 6 8 1009.3 1006.0 30.0
08/08:30pm 20.0 20.7 18.9 93 0.7 N 13 20 7 11 1009.0 - 30.0
08/08:00pm 20.4 21.1 18.9 91 1.0 N 13 20 7 11 1009.5 - 29.8
08/07:30pm 21.3 20.8 19.0 87 1.5 NNW 20 28 11 15 1009.1 - 29.6
08/07:00pm 21.2 21.8 18.7 86 1.6 N 13 19 7 10 1008.6 - 29.4
08/06:30pm 21.5 22.9 18.7 84 1.8 N 9 15 5 8 1007.9 - 29.4
08/06:00pm 21.5 22.5 18.7 84 1.8 NNE 11 15 6 8 1007.4 1004.1 29.4
08/05:30pm 22.1 20.3 17.9 77 2.7 NNW 24 37 13 20 1008.1 - 29.4
08/05:00pm 22.8 21.1 17.3 71 3.5 NNW 22 30 12 16 1007.3 - 29.4
08/04:30pm 24.9 25.6 19.6 72 3.5 NNW 15 20 8 11 1006.9 - 29.2
08/04:00pm 26.1 26.6 19.3 66 4.5 N 15 20 8 11 1006.8 - 29.0
08/03:30pm 23.2 23.3 20.3 84 1.9 NNW 20 32 11 17 1008.0 - 29.0
08/03:00pm 27.2 25.2 18.2 58 5.9 NNW 26 43 14 23 1008.4 1005.2 28.0
08/02:30pm 22.8 24.5 18.6 77 2.7 NE 7 11 4 6 1009.1 - 28.0
08/02:00pm 22.0 23.6 19.2 84 1.8 NNE 9 13 5 7 1010.0 - 28.0
08/01:30pm 19.5 17.2 15.7 78 2.3 NNW 22 50 12 27 1010.4 - 28.0
08/01:25pm 19.3 15.5 14.6 74 2.8 NNW 28 50 15 27 1009.9 - 27.6
08/01:24pm 18.8 15.9 15.2 79 2.2 WNW 24 50 13 27 1010.2 - 27.6
08/01:10pm 17.9 13.7 15.8 87 1.3 WSW 32 52 17 28 1012.3 - 18.6
08/01:00pm 21.6 19.7 16.6 73 3.1 WSW 22 33 12 18 1011.0 - 12.0
08/12:30pm 19.5 17.4 18.1 92 0.9 NNW 26 41 14 22 1011.9 - 9.4
08/12:15pm 20.1 16.9 18.2 89 1.2 NW 32 50 17 27 1011.5 - 4.0
08/12:13pm 21.2 17.0 19.0 87 1.4 NNW 39 50 21 27 1011.9 - 2.2
08/12:00pm 24.3 24.8 20.9 81 2.3 NNW 19 26 10 14 1011.9 1008.6 0.4
08/11:30am 27.0 26.7 19.5 63 5.0 N 20 30 11 16 1012.0 - 0.0
08/11:00am 26.1 26.0 19.5 67 4.4 N 19 28 10 15 1012.3 - 0.0
08/10:30am 25.5 26.1 20.3 73 3.5 N 17 24 9 13 1012.5 - 0.0
08/10:00am 23.6 24.4 19.8 79 2.5 N 15 22 8 12 1012.8 - 0.0
08/09:30am 21.8 21.8 18.9 83 1.9 N 17 28 9 15 1013.2 - 0.0
08/09:00am 21.1 22.1 18.6 86 1.6 N 11 17 6 9 1013.5 1010.3 2.6
08/08:30am 19.8 20.6 18.1 90 1.1 N 11 15 6 8 1013.7 - 2.6
08/08:00am 19.2 20.4 18.3 94 0.6 N 9 11 5 6 1014.1 - 2.4
08/07:30am 19.1 20.8 18.0 93 0.7 N 6 7 3 4 1014.2 - 2.4
08/07:00am 18.6 20.5 17.6 94 0.6 NE 4 9 2 5 1014.1 - 2.4
08/06:30am 18.4 21.0 17.4 94 0.6 CALM 0 0 0 0 1013.9 - 2.4
08/06:00am 18.1 19.6 17.5 96 0.4 E 6 7 3 4 1013.6 1010.4 2.4
08/05:30am 18.0 20.6 17.4 96 0.4 CALM 0 4 0 2 1013.5 - 2.4
08/05:00am 18.0 19.1 17.2 95 0.5 NE 7 11 4 6 1013.4 - 2.4
08/04:30am 18.1 19.3 17.3 95 0.5 NE 7 9 4 5 1013.4 - 2.4
08/04:00am 18.4 19.1 17.0 91 0.9 E 9 13 5 7 1013.6 - 1.2
08/03:30am 19.1 19.2 16.5 85 1.6 E 11 15 6 8 1013.3 - 0.0
08/03:00am 19.1 19.1 16.3 84 1.7 E 11 13 6 7 1013.7 1010.6 0.0
08/02:30am 19.0 19.1 16.6 86 1.5 E 11 13 6 7 1014.1 - 0.0
08/02:00am 19.3 19.6 16.9 86 1.5 ENE 11 13 6 7 1014.6 - 0.0
08/01:30am 19.6 20.3 17.0 85 1.6 ENE 9 13 5 7 1014.9 - 0.0
08/01:00am 20.1 20.3 17.6 85 1.6 ENE 13 17 7 9 1015.0 - 0.0
08/12:30am 20.3 21.6 18.4 89 1.2 ESE 9 13 5 7 1015.2 - 0.0
08/12:00am 20.1 21.8 18.4 90 1.1 SE 7 11 4 6 1015.2 1011.9 0.0
 
Date/Time
EDT
Temp
°C
App
Temp
°C
Dew
Point
°C
Rel
Hum
%
Delta-T
°C
Wind Press
QNH
hPa
Press
MSL
hPa
Rain since
9am
mm
Dir  Spd
km/h
Gust
km/h
Spd
kts
Gust
kts
07/11:30pm 20.4 22.2 18.4 88 1.3 SE 6 7 3 4 1015.3 - 0.0
07/11:00pm 20.9 23.0 17.2 79 2.3 SW 2 6 1 3 1015.6 - 0.0
07/10:30pm 21.0 23.5 17.2 79 2.4 CALM 0 0 0 0 1016.0 - 0.0
07/10:00pm 21.5 23.6 17.2 76 2.7 W 2 6 1 3 1015.9 - 0.0

Other Formats:

Comma delimited format used in spreadsheet applications
http://www.bom.gov.au/fwo/IDN60801/IDN60801.94541.axf

JavaScript Object Notation format (JSON) in row-major order
http://www.bom.gov.au/fwo/IDN60801/IDN60801.94541.json